createdAt,value
2023-04-13T00:00:27.922Z,10.00
2023-04-13T00:02:56.332Z,10.00
2023-04-13T00:05:26.399Z,9.90
2023-04-13T00:07:55.417Z,10.00
2023-04-13T00:10:24.273Z,10.00
2023-04-13T00:12:52.298Z,9.90
2023-04-13T00:15:20.731Z,9.90
2023-04-13T00:17:48.857Z,10.00
2023-04-13T00:20:17.841Z,10.00
2023-04-13T00:22:48.782Z,10.00
2023-04-13T00:25:17.475Z,10.00
2023-04-13T00:27:45.900Z,9.90
2023-04-13T00:30:16.167Z,9.90
2023-04-13T00:32:45.565Z,9.90
2023-04-13T00:35:18.701Z,9.90
2023-04-13T00:37:48.626Z,9.90
2023-04-13T00:40:17.994Z,9.90
2023-04-13T00:42:46.720Z,9.90
2023-04-13T00:45:16.054Z,9.80
2023-04-13T00:47:46.552Z,9.90
2023-04-13T00:50:19.340Z,9.80
2023-04-13T00:52:49.399Z,9.70
2023-04-13T00:55:21.125Z,9.70
2023-04-13T00:57:52.240Z,9.70
2023-04-13T01:00:21.658Z,9.70
2023-04-13T01:02:50.644Z,9.70
2023-04-13T01:05:19.178Z,9.60
2023-04-13T01:08:02.558Z,9.50
2023-04-13T01:10:37.736Z,9.50
2023-04-13T01:13:15.805Z,9.50
2023-04-13T01:15:57.412Z,9.50
2023-04-13T01:18:27.684Z,9.50
2023-04-13T01:20:56.348Z,9.50
2023-04-13T01:23:38.817Z,9.40
2023-04-13T01:26:08.887Z,9.50
2023-04-13T01:28:40.937Z,9.50
2023-04-13T01:31:11.847Z,9.40
2023-04-13T01:33:41.539Z,9.40
2023-04-13T01:36:12.403Z,9.50
2023-04-13T01:38:40.831Z,9.50
2023-04-13T01:41:10.751Z,9.40
2023-04-13T01:43:46.140Z,9.50
2023-04-13T01:46:16.149Z,9.40
2023-04-13T01:49:04.831Z,9.40
2023-04-13T01:51:45.246Z,9.40
2023-04-13T01:54:20.661Z,9.30
2023-04-13T01:56:50.291Z,9.40
2023-04-13T01:59:22.556Z,9.40
2023-04-13T02:01:50.920Z,9.40
2023-04-13T02:04:19.893Z,9.50
2023-04-13T02:06:51.494Z,9.40
2023-04-13T02:09:25.109Z,9.40
2023-04-13T02:11:55.284Z,9.50
2023-04-13T02:14:25.169Z,9.50
2023-04-13T02:16:54.633Z,9.50
2023-04-13T02:19:22.791Z,9.40
2023-04-13T02:21:50.823Z,9.50
2023-04-13T02:24:19.583Z,9.50
2023-04-13T02:26:47.635Z,9.50
2023-04-13T02:29:16.272Z,9.50
2023-04-13T02:31:48.901Z,9.50
2023-04-13T02:34:16.952Z,9.50
2023-04-13T02:36:45.249Z,9.50
2023-04-13T02:39:13.422Z,9.50
2023-04-13T02:41:43.020Z,9.50
2023-04-13T02:44:15.821Z,9.50
2023-04-13T02:46:51.689Z,9.50
2023-04-13T02:49:19.734Z,9.50
2023-04-13T02:52:14.202Z,9.50
2023-04-13T02:55:02.225Z,9.50
2023-04-13T02:57:37.628Z,9.50
2023-04-13T03:00:10.470Z,9.50
2023-04-13T03:02:48.164Z,9.50
2023-04-13T03:05:19.843Z,9.50
2023-04-13T03:07:49.062Z,9.50
2023-04-13T03:10:18.825Z,9.50
2023-04-13T03:12:47.770Z,9.50
2023-04-13T03:15:18.347Z,9.50
2023-04-13T03:17:48.460Z,9.60
2023-04-13T03:20:23.662Z,9.60
2023-04-13T03:22:58.653Z,9.60
2023-04-13T03:25:28.679Z,9.60
2023-04-13T03:27:56.984Z,9.60
2023-04-13T03:30:26.694Z,9.60
2023-04-13T03:33:02.864Z,9.60
2023-04-13T03:35:35.062Z,9.60
2023-04-13T03:38:05.572Z,9.70
2023-04-13T03:40:43.774Z,9.70
2023-04-13T03:43:12.182Z,9.70
2023-04-13T03:45:45.554Z,9.70
2023-04-13T03:48:17.987Z,9.80
2023-04-13T03:50:47.200Z,9.70
2023-04-13T03:53:18.564Z,9.70
2023-04-13T03:55:47.813Z,9.80
2023-04-13T03:58:15.825Z,9.70
2023-04-13T04:00:43.886Z,9.70
2023-04-13T04:03:22.135Z,9.70
2023-04-13T04:05:59.567Z,9.70
2023-04-13T04:08:30.131Z,9.70
2023-04-13T04:11:02.406Z,9.70
2023-04-13T04:13:31.221Z,9.70
2023-04-13T04:16:03.556Z,9.70
2023-04-13T04:18:35.685Z,9.70
2023-04-13T04:21:04.174Z,9.70
2023-04-13T04:23:34.660Z,9.70
2023-04-13T04:26:06.732Z,9.80
2023-04-13T04:28:43.866Z,9.80
2023-04-13T04:31:18.001Z,9.80
2023-04-13T04:33:51.732Z,9.90
2023-04-13T04:36:20.934Z,9.80
2023-04-13T04:38:58.012Z,9.70
2023-04-13T04:41:27.180Z,9.80
2023-04-13T04:44:02.590Z,9.80
2023-04-13T04:46:38.448Z,9.80
2023-04-13T04:49:11.621Z,9.70
2023-04-13T04:51:40.680Z,9.70
2023-04-13T04:54:09.691Z,9.80
2023-04-13T04:56:38.085Z,9.90
2023-04-13T04:59:06.860Z,9.80
2023-04-13T05:01:43.326Z,9.80
2023-04-13T05:04:15.100Z,9.80
2023-04-13T05:06:44.673Z,9.80
2023-04-13T05:09:18.927Z,9.80
2023-04-13T05:11:51.244Z,9.90
2023-04-13T05:14:21.293Z,9.80
2023-04-13T05:16:49.788Z,9.90
2023-04-13T05:19:27.288Z,9.90
2023-04-13T05:22:02.358Z,9.90
2023-04-13T05:24:36.050Z,9.90
2023-04-13T05:27:09.745Z,9.90
2023-04-13T05:29:38.023Z,9.90
2023-04-13T05:32:06.647Z,9.90
2023-04-13T05:34:38.155Z,9.90
2023-04-13T05:37:15.391Z,9.90
2023-04-13T05:39:45.140Z,10.00
2023-04-13T05:42:13.622Z,10.00
2023-04-13T05:44:45.189Z,10.00
2023-04-13T05:47:14.545Z,9.90
2023-04-13T05:49:46.827Z,9.90
2023-04-13T05:52:15.772Z,10.00
2023-04-13T05:54:46.731Z,10.00
2023-04-13T05:57:14.826Z,9.90
2023-04-13T05:59:47.489Z,10.00
2023-04-13T06:02:20.955Z,10.00
2023-04-13T06:04:53.633Z,10.00
2023-04-13T06:07:22.560Z,10.00
2023-04-13T06:09:50.694Z,10.10
2023-04-13T06:12:19.371Z,10.10
2023-04-13T06:14:47.597Z,10.10
2023-04-13T06:17:15.603Z,10.10
2023-04-13T06:19:43.870Z,10.10
2023-04-13T06:22:13.470Z,10.10
2023-04-13T06:24:42.266Z,10.10
2023-04-13T06:27:12.693Z,10.10
2023-04-13T06:29:44.076Z,10.10
2023-04-13T06:32:13.139Z,10.10
2023-04-13T06:34:41.209Z,10.00
2023-04-13T06:37:09.734Z,10.00
2023-04-13T06:39:47.939Z,10.00
2023-04-13T06:42:16.659Z,10.00
2023-04-13T06:45:06.586Z,10.10
2023-04-13T06:47:42.006Z,10.10
2023-04-13T06:50:15.490Z,10.00
2023-04-13T06:52:44.859Z,10.00
2023-04-13T06:55:15.088Z,10.00
2023-04-13T06:57:43.398Z,10.00
2023-04-13T07:00:26.407Z,10.00
2023-04-13T07:02:58.045Z,10.00
2023-04-13T07:05:26.407Z,10.00
2023-04-13T07:07:57.020Z,10.00
2023-04-13T07:10:26.543Z,10.00
2023-04-13T07:12:56.879Z,10.00
2023-04-13T07:15:28.342Z,10.00
2023-04-13T07:17:56.516Z,10.00
2023-04-13T07:20:24.617Z,9.90
2023-04-13T07:22:53.126Z,9.90
2023-04-13T07:25:21.682Z,10.00
2023-04-13T07:27:51.140Z,10.00
2023-04-13T07:30:19.964Z,10.00
2023-04-13T07:32:48.921Z,10.00
2023-04-13T07:35:17.284Z,10.10
2023-04-13T07:37:51.393Z,10.10
2023-04-13T07:40:21.504Z,10.10
2023-04-13T07:42:54.091Z,10.00
2023-04-13T07:45:22.918Z,10.10
2023-04-13T07:47:53.430Z,10.10
2023-04-13T07:50:21.953Z,10.10
2023-04-13T07:52:50.483Z,10.00
2023-04-13T07:55:21.742Z,10.10
2023-04-13T07:57:50.559Z,10.00
2023-04-13T08:00:22.791Z,10.10
2023-04-13T08:02:56.100Z,10.10
2023-04-13T08:05:26.173Z,10.20
2023-04-13T08:07:54.514Z,10.10
2023-04-13T08:10:22.935Z,10.10
2023-04-13T08:12:51.410Z,10.20
2023-04-13T08:15:22.600Z,10.20
2023-04-13T08:17:51.000Z,10.20
2023-04-13T08:20:21.098Z,10.30
2023-04-13T08:22:50.897Z,10.20
2023-04-13T08:25:21.275Z,10.30
2023-04-13T08:27:49.585Z,10.40
2023-04-13T08:30:17.694Z,10.40
2023-04-13T08:32:54.602Z,10.40
2023-04-13T08:35:24.403Z,10.40
2023-04-13T08:37:53.869Z,10.40
2023-04-13T08:40:22.691Z,10.50
2023-04-13T08:42:55.488Z,10.50
2023-04-13T08:45:23.739Z,10.60
2023-04-13T08:47:53.168Z,10.70
2023-04-13T08:50:26.698Z,10.80
2023-04-13T08:52:56.522Z,10.90
2023-04-13T08:55:27.318Z,11.00
2023-04-13T08:57:59.275Z,11.00
2023-04-13T09:00:27.472Z,10.90
2023-04-13T09:03:05.374Z,10.90
2023-04-13T09:05:40.187Z,10.90
2023-04-13T09:08:11.663Z,10.90
2023-04-13T09:10:42.233Z,10.90
2023-04-13T09:13:10.415Z,11.00
2023-04-13T09:15:38.978Z,11.00
2023-04-13T09:18:22.726Z,10.90
2023-04-13T09:20:57.541Z,10.90
2023-04-13T09:23:25.813Z,10.90
2023-04-13T09:26:05.900Z,11.00
2023-04-13T09:28:33.941Z,10.90
2023-04-13T09:31:06.401Z,10.90
2023-04-13T09:33:46.103Z,11.00
2023-04-13T09:36:15.609Z,11.10
2023-04-13T09:38:45.064Z,11.00
2023-04-13T09:41:13.148Z,11.00
2023-04-13T09:43:41.227Z,11.10
2023-04-13T09:46:16.186Z,11.20
2023-04-13T09:48:45.733Z,11.30
2023-04-13T09:51:13.819Z,11.30
2023-04-13T09:53:43.536Z,11.40
2023-04-13T09:56:11.783Z,11.50
2023-04-13T09:58:44.756Z,11.60
2023-04-13T10:01:13.498Z,11.50
2023-04-13T10:03:42.799Z,11.50
2023-04-13T10:06:12.788Z,11.40
2023-04-13T10:08:41.941Z,11.40
2023-04-13T10:11:14.326Z,11.50
2023-04-13T10:13:49.149Z,11.60
2023-04-13T10:16:50.234Z,11.70
2023-04-13T10:19:21.567Z,11.80
2023-04-13T10:21:53.043Z,11.80
2023-04-13T10:24:22.233Z,11.90
2023-04-13T10:26:54.317Z,11.90
2023-04-13T10:29:29.068Z,12.10
2023-04-13T10:32:03.093Z,12.10
2023-04-13T10:34:34.181Z,12.00
2023-04-13T10:37:06.449Z,12.00
2023-04-13T10:39:36.111Z,12.10
2023-04-13T10:42:05.826Z,12.00
2023-04-13T10:44:47.311Z,12.10
2023-04-13T10:47:17.764Z,12.20
2023-04-13T10:49:46.636Z,12.30
2023-04-13T10:52:16.312Z,12.40
2023-04-13T10:54:44.943Z,12.40
2023-04-13T10:57:13.493Z,12.50
2023-04-13T10:59:56.194Z,12.40
2023-04-13T11:02:31.534Z,12.30
2023-04-13T11:05:00.987Z,12.50
2023-04-13T11:07:31.320Z,12.60
2023-04-13T11:12:30.701Z,12.60
2023-04-13T11:14:58.799Z,12.70
2023-04-13T11:17:27.257Z,12.60
2023-04-13T11:19:57.305Z,12.70
2023-04-13T11:22:28.003Z,12.70
2023-04-13T11:25:08.832Z,12.90
2023-04-13T11:27:37.901Z,13.00
2023-04-13T11:30:09.832Z,13.00
2023-04-13T11:32:41.414Z,13.10
2023-04-13T11:35:11.289Z,13.20
2023-04-13T11:37:40.758Z,13.20
2023-04-13T11:40:14.859Z,13.20
2023-04-13T11:42:45.875Z,13.30
2023-04-13T11:45:15.766Z,13.10
2023-04-13T11:47:44.121Z,12.90
2023-04-13T11:50:14.792Z,12.80
2023-04-13T11:52:44.886Z,12.70
2023-04-13T11:55:23.183Z,12.50
2023-04-13T11:57:52.956Z,12.50
2023-04-13T12:00:25.855Z,12.30
2023-04-13T12:05:28.752Z,12.40
2023-04-13T12:07:58.678Z,12.70
2023-04-13T12:10:39.132Z,12.90
2023-04-13T12:16:04.993Z,13.10
2023-04-13T12:18:37.238Z,13.10
2023-04-13T12:21:06.312Z,13.10
2023-04-13T12:23:34.492Z,13.10
2023-04-13T12:26:31.637Z,13.10
2023-04-13T12:28:56.446Z,13.00
2023-04-13T12:31:24.629Z,13.00
2023-04-13T12:33:52.682Z,12.90
2023-04-13T12:36:20.708Z,12.80
2023-04-13T12:38:48.705Z,12.80
2023-04-13T12:41:18.046Z,12.90
2023-04-13T12:43:46.387Z,13.00
2023-04-13T12:46:14.754Z,13.00
2023-04-13T12:48:42.885Z,13.00
2023-04-13T12:51:11.228Z,12.90
2023-04-13T12:53:39.348Z,12.80
2023-04-13T12:56:08.223Z,12.60
2023-04-13T12:58:37.613Z,12.30
2023-04-13T13:01:06.798Z,12.10
2023-04-13T13:03:36.668Z,12.10
2023-04-13T13:06:06.060Z,12.00
2023-04-13T13:08:36.060Z,12.00
2023-04-13T13:11:06.136Z,11.90
2023-04-13T13:13:34.188Z,11.80
2023-04-13T13:16:03.651Z,11.80
2023-04-13T13:18:46.586Z,11.70
2023-04-13T13:21:17.767Z,11.60
2023-04-13T13:23:46.416Z,11.60
2023-04-13T13:28:46.200Z,11.50
2023-04-13T13:31:16.176Z,11.50
2023-04-13T13:33:44.265Z,11.40
2023-04-13T13:36:13.803Z,11.40
2023-04-13T13:38:42.698Z,11.40
2023-04-13T13:41:10.981Z,11.40
2023-04-13T13:43:39.915Z,11.40
2023-04-13T13:46:08.994Z,11.50
2023-04-13T13:48:40.908Z,11.40
2023-04-13T13:51:28.327Z,11.40
2023-04-13T13:53:57.646Z,11.50
2023-04-13T13:56:26.040Z,11.50
2023-04-13T13:58:54.049Z,11.60
2023-04-13T14:01:22.085Z,11.50
2023-04-13T14:03:51.900Z,11.60
2023-04-13T14:06:20.304Z,11.60
2023-04-13T14:08:48.342Z,11.60
2023-04-13T14:11:16.463Z,11.60
2023-04-13T14:13:44.605Z,11.60
2023-04-13T14:16:12.739Z,11.60
2023-04-13T14:18:40.827Z,11.60
2023-04-13T14:21:10.735Z,11.60
2023-04-13T14:23:40.258Z,11.70
2023-04-13T14:26:08.406Z,11.80
2023-04-13T14:28:36.970Z,11.80
2023-04-13T14:31:05.562Z,11.90
2023-04-13T14:33:34.211Z,11.90
2023-04-13T14:36:02.230Z,12.00
2023-04-13T14:38:31.749Z,12.00
2023-04-13T14:40:59.740Z,12.00
2023-04-13T14:43:27.737Z,12.00
2023-04-13T14:45:55.997Z,12.00
2023-04-13T14:48:24.001Z,12.00
2023-04-13T14:50:52.646Z,12.10
2023-04-13T14:53:20.741Z,12.20
2023-04-13T14:55:50.225Z,12.20
2023-04-13T14:58:19.061Z,12.20
2023-04-13T15:00:47.099Z,12.10
2023-04-13T15:03:15.782Z,12.10
2023-04-13T15:05:46.259Z,12.10
2023-04-13T15:08:16.589Z,12.10
2023-04-13T15:10:44.611Z,12.00
2023-04-13T15:13:13.960Z,11.90
2023-04-13T15:15:42.030Z,11.80
2023-04-13T15:18:10.208Z,11.80
2023-04-13T15:20:38.258Z,11.90
2023-04-13T15:23:06.357Z,11.90
2023-04-13T15:25:34.395Z,11.90
2023-04-13T15:28:02.626Z,11.90
2023-04-13T15:30:34.247Z,11.90
2023-04-13T15:33:03.507Z,12.10
2023-04-13T15:35:32.033Z,12.20
2023-04-13T15:38:02.759Z,12.30
2023-04-13T15:40:33.628Z,12.40
2023-04-13T15:43:01.789Z,12.40
2023-04-13T15:45:31.442Z,12.40
2023-04-13T15:47:59.675Z,12.30
2023-04-13T15:50:28.061Z,12.20
2023-04-13T15:52:57.069Z,12.20
2023-04-13T15:55:25.502Z,12.20
2023-04-13T15:57:53.886Z,12.20
2023-04-13T16:00:22.386Z,12.20
2023-04-13T16:02:51.859Z,12.10
2023-04-13T16:05:20.080Z,12.00
2023-04-13T16:07:48.152Z,12.00
2023-04-13T16:10:16.876Z,11.90
2023-04-13T16:12:45.442Z,11.90
2023-04-13T16:15:13.903Z,11.90
2023-04-13T16:17:43.958Z,11.90
2023-04-13T16:20:21.270Z,11.90
2023-04-13T16:22:53.132Z,11.90
2023-04-13T16:25:21.676Z,11.90
2023-04-13T16:27:49.917Z,11.80
2023-04-13T16:30:20.747Z,11.90
2023-04-13T16:32:50.790Z,11.90
2023-04-13T16:35:20.744Z,11.80
2023-04-13T16:37:48.835Z,11.90
2023-04-13T16:40:17.246Z,11.90
2023-04-13T16:42:46.129Z,11.80
2023-04-13T16:45:15.208Z,11.70
2023-04-13T16:47:43.700Z,11.70
2023-04-13T16:50:12.640Z,11.70
2023-04-13T16:52:43.530Z,11.70
2023-04-13T16:55:16.773Z,11.70
2023-04-13T16:57:46.775Z,11.70
2023-04-13T17:00:18.475Z,11.60
2023-04-13T17:02:48.376Z,11.60
2023-04-13T17:05:17.964Z,11.60
2023-04-13T17:07:48.491Z,11.50
2023-04-13T17:10:18.809Z,11.50
2023-04-13T17:12:48.588Z,11.50
2023-04-13T17:15:19.930Z,11.50
2023-04-13T17:17:48.478Z,11.50
2023-04-13T17:20:17.240Z,11.50
2023-04-13T17:22:47.058Z,11.50
2023-04-13T17:25:15.439Z,11.50
2023-04-13T17:27:43.549Z,11.50
2023-04-13T17:30:13.456Z,11.40
2023-04-13T17:32:41.661Z,11.40
2023-04-13T17:35:10.204Z,11.40
2023-04-13T17:37:38.328Z,11.40
2023-04-13T17:40:09.227Z,11.30
2023-04-13T17:42:37.254Z,11.30
2023-04-13T17:45:06.109Z,11.40
2023-04-13T17:47:34.175Z,11.40
2023-04-13T17:50:02.158Z,11.40
2023-04-13T17:52:30.464Z,11.30
2023-04-13T17:54:58.674Z,11.30
2023-04-13T17:57:28.058Z,11.30
2023-04-13T17:59:56.111Z,11.30
2023-04-13T18:02:24.192Z,11.20
2023-04-13T18:04:52.400Z,11.20
2023-04-13T18:07:21.684Z,11.20
2023-04-13T18:09:49.708Z,11.20
2023-04-13T18:12:17.764Z,11.10
2023-04-13T18:14:47.150Z,11.10
2023-04-13T18:17:15.293Z,11.10
2023-04-13T18:19:43.681Z,11.10
2023-04-13T18:22:13.402Z,11.10
2023-04-13T18:24:42.088Z,11.10
2023-04-13T18:27:10.071Z,11.10
2023-04-13T18:29:38.080Z,11.00
2023-04-13T18:32:09.100Z,11.00
2023-04-13T18:34:37.208Z,11.00
2023-04-13T18:37:07.655Z,11.00
2023-04-13T18:39:35.866Z,11.00
2023-04-13T18:42:04.398Z,11.00
2023-04-13T18:44:32.583Z,11.00
2023-04-13T18:47:00.792Z,10.90
2023-04-13T18:49:30.543Z,10.90
2023-04-13T18:51:58.545Z,10.90
2023-04-13T18:54:26.559Z,11.00
2023-04-13T18:56:54.545Z,10.90
2023-04-13T18:59:22.778Z,10.90
2023-04-13T19:01:51.190Z,10.90
2023-04-13T19:04:19.297Z,10.90
2023-04-13T19:06:48.716Z,10.90
2023-04-13T19:09:16.727Z,11.00
2023-04-13T19:11:49.075Z,11.00
2023-04-13T19:14:17.031Z,11.00
2023-04-13T19:16:45.632Z,11.00
2023-04-13T19:19:15.601Z,11.00
2023-04-13T19:21:43.730Z,10.90
2023-04-13T19:24:13.501Z,10.90
2023-04-13T19:26:41.757Z,10.90
2023-04-13T19:29:12.694Z,10.80
2023-04-13T19:31:43.695Z,10.80
2023-04-13T19:34:12.576Z,10.80
2023-04-13T19:36:41.638Z,10.80
2023-04-13T19:39:10.174Z,10.90
2023-04-13T19:41:40.945Z,10.80
2023-04-13T19:44:09.875Z,10.80
2023-04-13T19:46:38.484Z,10.80
2023-04-13T19:49:06.853Z,10.80
2023-04-13T19:51:35.256Z,10.80
2023-04-13T19:54:04.916Z,10.80
2023-04-13T19:56:35.325Z,10.70
2023-04-13T19:59:06.923Z,10.70
2023-04-13T20:01:35.194Z,10.60
2023-04-13T20:04:05.435Z,10.70
2023-04-13T20:06:34.097Z,10.60
2023-04-13T20:09:09.054Z,10.60
2023-04-13T20:11:37.060Z,10.60
2023-04-13T20:14:06.373Z,10.50
2023-04-13T20:16:35.405Z,10.50
2023-04-13T20:19:03.622Z,10.50
2023-04-13T20:21:32.894Z,10.50
2023-04-13T20:24:01.147Z,10.50
2023-04-13T20:26:31.214Z,10.60
2023-04-13T20:28:59.521Z,10.70
2023-04-13T20:31:29.649Z,10.60
2023-04-13T20:33:57.900Z,10.60
2023-04-13T20:36:26.997Z,10.70
2023-04-13T20:38:59.178Z,10.70
2023-04-13T20:41:29.725Z,10.70
2023-04-13T20:43:58.763Z,10.60
2023-04-13T20:46:34.150Z,10.60
2023-04-13T20:49:04.427Z,10.50
2023-04-13T20:51:33.337Z,10.50
2023-04-13T20:54:02.473Z,10.50
2023-04-13T20:56:31.560Z,10.50
2023-04-13T20:59:00.795Z,10.50
2023-04-13T21:01:30.514Z,10.50
2023-04-13T21:03:58.802Z,10.50
2023-04-13T21:06:28.989Z,10.50
2023-04-13T21:08:58.820Z,10.50
2023-04-13T21:11:27.061Z,10.50
2023-04-13T21:13:55.116Z,10.40
2023-04-13T21:16:25.534Z,10.50
2023-04-13T21:18:55.960Z,10.40
2023-04-13T21:21:24.897Z,10.40
2023-04-13T21:23:54.297Z,10.50
2023-04-13T21:26:22.504Z,10.40
2023-04-13T21:28:50.632Z,10.40
2023-04-13T21:31:18.664Z,10.40
2023-04-13T21:33:46.802Z,10.40
2023-04-13T21:38:47.151Z,10.40
2023-04-13T21:41:16.015Z,10.40
2023-04-13T21:43:44.097Z,10.40
2023-04-13T21:46:12.970Z,10.40
2023-04-13T21:48:41.353Z,10.30
2023-04-13T21:51:10.613Z,10.30
2023-04-13T21:53:40.191Z,10.30
2023-04-13T21:56:08.691Z,10.30
2023-04-13T21:58:41.147Z,10.30
2023-04-13T22:01:09.837Z,10.40
2023-04-13T22:03:38.667Z,10.40
2023-04-13T22:06:08.925Z,10.40
2023-04-13T22:08:37.403Z,10.40
2023-04-13T22:11:07.418Z,10.40
2023-04-13T22:13:35.577Z,10.30
2023-04-13T22:16:03.986Z,10.20
2023-04-13T22:18:32.064Z,10.20
2023-04-13T22:21:00.765Z,10.20
2023-04-13T22:23:29.104Z,10.20
2023-04-13T22:25:58.658Z,10.10
2023-04-13T22:28:28.285Z,10.10
2023-04-13T22:30:56.343Z,10.10
2023-04-13T22:33:24.548Z,10.10
2023-04-13T22:35:52.710Z,10.10
2023-04-13T22:38:21.045Z,10.10
2023-04-13T22:40:49.077Z,10.00
2023-04-13T22:43:17.418Z,10.10
2023-04-13T22:45:46.785Z,10.20
2023-04-13T22:48:14.796Z,10.00
2023-04-13T22:50:42.807Z,10.10
2023-04-13T22:53:10.798Z,10.10
2023-04-13T22:55:38.833Z,10.10
2023-04-13T22:58:06.872Z,10.10
2023-04-13T23:00:34.923Z,10.10
2023-04-13T23:03:04.588Z,10.10
2023-04-13T23:05:34.589Z,10.00
2023-04-13T23:08:02.638Z,9.90
2023-04-13T23:10:31.647Z,9.90
2023-04-13T23:13:00.383Z,9.90
2023-04-13T23:15:28.419Z,9.90
2023-04-13T23:17:57.263Z,9.90
2023-04-13T23:20:28.638Z,9.80
2023-04-13T23:22:56.654Z,9.70
2023-04-13T23:25:24.911Z,9.60
2023-04-13T23:27:52.909Z,9.60
2023-04-13T23:30:21.923Z,9.70
2023-04-13T23:32:50.029Z,9.60
2023-04-13T23:35:18.313Z,9.70
2023-04-13T23:37:47.674Z,9.70
2023-04-13T23:40:15.780Z,9.70
2023-04-13T23:42:43.851Z,9.70
2023-04-13T23:45:12.128Z,9.70
2023-04-13T23:47:40.555Z,9.60
2023-04-13T23:50:09.107Z,9.70
2023-04-13T23:52:37.103Z,9.60
2023-04-13T23:55:07.695Z,9.60
2023-04-13T23:57:35.794Z,9.50
